createdAt,value
2023-05-03T00:02:18.391Z,3.25
2023-05-03T00:05:06.096Z,3.09
2023-05-03T00:07:54.929Z,3.24
2023-05-03T00:10:41.959Z,3.22
2023-05-03T00:13:28.951Z,3.22
2023-05-03T00:16:15.956Z,3.20
2023-05-03T00:19:03.134Z,3.20
2023-05-03T00:21:50.112Z,3.19
2023-05-03T00:24:37.445Z,3.18
2023-05-03T00:27:25.042Z,3.07
2023-05-03T00:30:12.688Z,3.15
2023-05-03T00:33:00.224Z,3.00
2023-05-03T00:35:47.956Z,3.11
2023-05-03T00:38:35.238Z,3.09
2023-05-03T00:41:22.388Z,3.08
2023-05-03T00:44:09.548Z,3.12
2023-05-03T00:46:56.869Z,3.07
2023-05-03T00:49:27.058Z,3.10
2023-05-03T00:51:54.765Z,3.09
2023-05-03T00:54:23.371Z,3.00
2023-05-03T00:56:51.991Z,3.03
2023-05-03T00:59:20.322Z,2.61
2023-05-03T01:01:52.025Z,3.04
2023-05-03T01:04:23.471Z,3.03
2023-05-03T01:07:17.421Z,3.01
2023-05-03T01:10:01.559Z,3.01
2023-05-03T01:12:48.014Z,3.00
2023-05-03T01:15:50.312Z,2.95
2023-05-03T01:18:32.526Z,2.94
2023-05-03T01:21:01.346Z,2.85
2023-05-03T01:23:33.682Z,2.93
2023-05-03T01:26:14.319Z,2.91
2023-05-03T01:28:41.583Z,2.92
2023-05-03T01:31:08.578Z,2.92
2023-05-03T01:33:47.717Z,2.91
2023-05-03T01:36:26.597Z,2.90
2023-05-03T01:38:54.558Z,2.90
2023-05-03T01:41:24.232Z,2.90
2023-05-03T01:43:54.283Z,2.92
2023-05-03T01:46:22.260Z,2.90
2023-05-03T01:48:49.560Z,2.71
2023-05-03T01:51:16.664Z,2.95
2023-05-03T01:53:43.738Z,2.99
2023-05-03T01:56:10.779Z,3.01
2023-05-03T01:58:37.762Z,3.03
2023-05-03T02:01:07.535Z,3.04
2023-05-03T02:03:34.766Z,2.97
2023-05-03T02:06:01.732Z,3.09
2023-05-03T02:08:29.368Z,3.08
2023-05-03T02:10:56.503Z,3.01
2023-05-03T02:13:23.552Z,3.13
2023-05-03T02:15:51.111Z,3.18
2023-05-03T02:18:18.558Z,3.19
2023-05-03T02:20:46.489Z,3.21
2023-05-03T02:23:14.360Z,3.24
2023-05-03T02:25:41.836Z,3.26
2023-05-03T02:28:09.017Z,3.29
2023-05-03T02:30:36.420Z,3.30
2023-05-03T02:33:03.718Z,3.28
2023-05-03T02:35:31.444Z,3.30
2023-05-03T02:37:58.623Z,3.37
2023-05-03T02:40:26.131Z,3.38
2023-05-03T02:42:53.881Z,3.15
2023-05-03T02:45:25.665Z,3.38
2023-05-03T02:47:52.864Z,3.42
2023-05-03T02:50:20.225Z,3.44
2023-05-03T02:52:47.439Z,3.45
2023-05-03T02:55:14.644Z,3.44
2023-05-03T02:57:43.760Z,3.46
2023-05-03T03:00:15.538Z,3.46
2023-05-03T03:02:43.453Z,3.45
2023-05-03T03:05:11.220Z,3.46
2023-05-03T03:07:40.643Z,3.46
2023-05-03T03:10:08.595Z,3.45
2023-05-03T03:12:36.550Z,3.42
2023-05-03T03:15:07.266Z,3.39
2023-05-03T03:17:39.012Z,3.45
2023-05-03T03:20:12.983Z,3.46
2023-05-03T03:22:45.541Z,3.42
2023-05-03T03:25:12.585Z,3.41
2023-05-03T03:27:40.109Z,3.42
2023-05-03T03:30:09.360Z,3.45
2023-05-03T03:32:44.776Z,3.38
2023-05-03T03:35:17.233Z,3.49
2023-05-03T03:37:44.264Z,3.14
2023-05-03T03:40:12.325Z,3.52
2023-05-03T03:42:40.471Z,3.54
2023-05-03T03:45:08.004Z,3.55
2023-05-03T03:47:35.292Z,3.58
2023-05-03T03:50:02.711Z,3.58
2023-05-03T03:52:32.119Z,3.62
2023-05-03T03:54:59.187Z,3.64
2023-05-03T03:57:30.326Z,3.67
2023-05-03T03:59:59.379Z,3.71
2023-05-03T04:02:28.492Z,3.74
2023-05-03T04:04:55.707Z,3.76
2023-05-03T04:07:22.959Z,3.60
2023-05-03T04:09:50.355Z,3.65
2023-05-03T04:12:18.001Z,3.89
2023-05-03T04:14:47.413Z,3.83
2023-05-03T04:17:14.664Z,3.93
2023-05-03T04:19:41.840Z,3.88
2023-05-03T04:22:09.693Z,3.90
2023-05-03T04:24:39.753Z,4.09
2023-05-03T04:27:08.893Z,3.99
2023-05-03T04:29:39.252Z,4.10
2023-05-03T04:32:07.908Z,4.20
2023-05-03T04:34:36.480Z,4.21
2023-05-03T04:37:05.366Z,4.29
2023-05-03T04:39:33.118Z,4.32
2023-05-03T04:42:02.237Z,4.36
2023-05-03T04:44:30.083Z,4.37
2023-05-03T04:46:58.299Z,4.40
2023-05-03T04:49:27.422Z,4.41
2023-05-03T04:51:56.462Z,4.44
2023-05-03T04:54:25.078Z,4.43
2023-05-03T04:56:53.600Z,4.41
2023-05-03T04:59:21.074Z,4.52
2023-05-03T05:01:48.583Z,4.33
2023-05-03T05:04:15.729Z,4.58
2023-05-03T05:06:47.603Z,4.56
2023-05-03T05:09:24.236Z,4.65
2023-05-03T05:11:56.129Z,4.67
2023-05-03T05:14:28.350Z,4.71
2023-05-03T05:16:56.738Z,4.67
2023-05-03T05:19:24.068Z,4.76
2023-05-03T05:21:52.492Z,4.77
2023-05-03T05:24:21.192Z,4.80
2023-05-03T05:26:49.084Z,4.73
2023-05-03T05:29:17.592Z,4.80
2023-05-03T05:31:45.123Z,4.32
2023-05-03T05:34:12.225Z,4.29
2023-05-03T05:36:39.344Z,4.80
2023-05-03T05:39:07.212Z,4.80
2023-05-03T05:41:34.165Z,4.80
2023-05-03T05:44:01.283Z,4.79
2023-05-03T05:46:30.553Z,4.74
2023-05-03T05:48:57.788Z,4.80
2023-05-03T05:51:44.830Z,4.70
2023-05-03T05:54:31.972Z,4.83
2023-05-03T05:57:20.000Z,4.87
2023-05-03T06:00:06.992Z,4.80
2023-05-03T06:03:01.840Z,4.92
2023-05-03T06:05:49.158Z,4.95
2023-05-03T06:08:36.240Z,4.85
2023-05-03T06:11:23.614Z,4.97
2023-05-03T06:14:11.279Z,5.00
2023-05-03T06:17:00.402Z,5.01
2023-05-03T06:19:47.579Z,5.01
2023-05-03T06:22:35.745Z,4.60
2023-05-03T06:25:22.990Z,5.01
2023-05-03T06:28:11.194Z,5.02
2023-05-03T06:30:58.393Z,5.00
2023-05-03T06:33:47.362Z,5.00
2023-05-03T06:36:35.831Z,4.79
2023-05-03T06:39:23.499Z,4.83
2023-05-03T06:42:11.476Z,5.00
2023-05-03T06:45:00.963Z,4.99
2023-05-03T06:47:48.234Z,4.95
2023-05-03T06:50:35.121Z,5.06
2023-05-03T06:53:22.598Z,5.10
2023-05-03T06:56:09.961Z,5.00
2023-05-03T06:58:57.243Z,4.89
2023-05-03T07:01:44.720Z,5.22
2023-05-03T07:04:31.822Z,5.24
2023-05-03T07:07:19.047Z,5.25
2023-05-03T07:10:06.383Z,5.28
2023-05-03T07:12:53.624Z,5.29
2023-05-03T07:15:40.635Z,4.84
2023-05-03T07:18:27.628Z,5.15
2023-05-03T07:21:14.774Z,5.04
2023-05-03T07:24:01.726Z,4.94
2023-05-03T07:26:49.294Z,4.83
2023-05-03T07:29:36.255Z,4.70
2023-05-03T07:32:23.814Z,4.57
2023-05-03T07:35:11.021Z,4.31
2023-05-03T07:37:58.110Z,4.35
2023-05-03T07:40:45.038Z,4.27
2023-05-03T07:43:32.389Z,4.17
2023-05-03T07:46:19.550Z,4.07
2023-05-03T07:49:07.142Z,3.97
2023-05-03T07:51:58.455Z,3.89
2023-05-03T07:54:45.611Z,3.77
2023-05-03T07:57:34.993Z,3.74
2023-05-03T08:00:22.802Z,3.66
2023-05-03T08:03:10.053Z,3.58
2023-05-03T08:05:57.212Z,3.24
2023-05-03T08:08:44.259Z,3.40
2023-05-03T08:11:31.477Z,3.20
2023-05-03T08:14:18.736Z,3.30
2023-05-03T08:17:05.875Z,3.35
2023-05-03T08:19:52.907Z,3.34
2023-05-03T08:22:40.039Z,3.31
2023-05-03T08:25:27.729Z,3.30
2023-05-03T08:28:14.769Z,3.22
2023-05-03T08:31:02.164Z,3.42
2023-05-03T08:33:49.248Z,3.40
2023-05-03T08:36:36.582Z,3.34
2023-05-03T08:39:27.268Z,3.32
2023-05-03T08:42:14.483Z,3.25
2023-05-03T08:45:08.582Z,3.18
2023-05-03T08:47:55.758Z,3.14
2023-05-03T08:50:44.450Z,2.83
2023-05-03T08:53:31.876Z,2.99
2023-05-03T08:56:18.749Z,3.08
2023-05-03T08:59:06.090Z,3.18
2023-05-03T09:01:57.509Z,3.20
2023-05-03T09:04:53.435Z,3.19
2023-05-03T09:07:40.626Z,3.18
2023-05-03T09:10:43.366Z,2.86
2023-05-03T09:13:31.167Z,3.18
2023-05-03T09:16:18.622Z,3.11
2023-05-03T09:19:16.970Z,3.20
2023-05-03T09:22:06.098Z,3.25
2023-05-03T09:24:53.137Z,3.27
2023-05-03T09:27:40.738Z,3.33
2023-05-03T09:30:40.072Z,3.37
2023-05-03T09:33:28.664Z,3.39
2023-05-03T09:36:20.380Z,3.45
2023-05-03T09:39:07.465Z,3.42
2023-05-03T09:41:54.461Z,3.54
2023-05-03T09:45:00.798Z,3.53
2023-05-03T09:47:48.047Z,3.13
2023-05-03T09:50:35.171Z,3.73
2023-05-03T09:53:27.751Z,3.79
2023-05-03T09:56:14.953Z,3.87
2023-05-03T09:59:03.105Z,3.76
2023-05-03T10:01:50.270Z,3.96
2023-05-03T10:04:40.327Z,3.97
2023-05-03T10:07:32.317Z,4.13
2023-05-03T10:10:19.509Z,4.21
2023-05-03T10:13:10.293Z,4.26
2023-05-03T10:16:01.843Z,4.32
2023-05-03T10:18:52.189Z,4.15
2023-05-03T10:21:49.749Z,4.01
2023-05-03T10:24:37.395Z,4.49
2023-05-03T10:27:28.200Z,4.61
2023-05-03T10:30:15.369Z,4.64
2023-05-03T10:33:02.626Z,4.64
2023-05-03T10:35:49.873Z,4.59
2023-05-03T10:38:40.522Z,4.71
2023-05-03T10:41:27.718Z,4.35
2023-05-03T10:44:14.871Z,4.84
2023-05-03T10:47:03.919Z,4.88
2023-05-03T10:49:50.965Z,5.01
2023-05-03T10:53:05.965Z,4.60
2023-05-03T10:55:54.055Z,5.10
2023-05-03T10:58:41.229Z,5.12
2023-05-03T11:01:33.522Z,5.26
2023-05-03T11:04:30.287Z,5.33
2023-05-03T11:07:18.598Z,5.49
2023-05-03T11:10:05.827Z,5.57
2023-05-03T11:12:52.910Z,5.63
2023-05-03T11:15:40.153Z,5.68
2023-05-03T11:18:28.725Z,5.71
2023-05-03T11:21:16.013Z,5.68
2023-05-03T11:24:03.986Z,5.83
2023-05-03T11:26:57.378Z,5.66
2023-05-03T11:29:45.504Z,5.98
2023-05-03T11:32:32.896Z,6.10
2023-05-03T11:35:21.243Z,6.21
2023-05-03T11:38:08.213Z,6.31
2023-05-03T11:40:55.597Z,6.32
2023-05-03T11:43:42.656Z,6.34
2023-05-03T11:46:30.274Z,6.03
2023-05-03T11:49:17.414Z,6.25
2023-05-03T11:52:04.790Z,6.21
2023-05-03T11:54:52.071Z,5.87
2023-05-03T11:57:39.549Z,6.20
2023-05-03T12:00:34.923Z,5.83
2023-05-03T12:03:23.249Z,6.30
2023-05-03T12:06:16.660Z,6.37
2023-05-03T12:09:04.475Z,6.46
2023-05-03T12:12:02.660Z,6.12
2023-05-03T12:15:22.027Z,6.55
2023-05-03T12:18:18.632Z,6.34
2023-05-03T12:24:06.130Z,6.77
2023-05-03T12:26:53.347Z,6.54
2023-05-03T12:29:41.734Z,6.82
2023-05-03T12:32:29.129Z,7.02
2023-05-03T12:35:19.433Z,7.14
2023-05-03T12:38:09.875Z,7.19
2023-05-03T12:40:58.236Z,7.19
2023-05-03T12:43:45.988Z,7.16
2023-05-03T12:46:35.171Z,7.25
2023-05-03T12:49:23.391Z,7.39
2023-05-03T12:52:36.393Z,7.47
2023-05-03T12:55:19.116Z,7.55
2023-05-03T12:58:39.498Z,7.68
2023-05-03T13:06:58.927Z,7.60
2023-05-03T13:12:37.806Z,7.47
2023-05-03T13:15:25.438Z,7.38
2023-05-03T13:18:12.599Z,7.34
2023-05-03T13:20:59.600Z,7.28
2023-05-03T13:23:48.017Z,7.24
2023-05-03T13:26:35.629Z,7.08
2023-05-03T13:29:23.364Z,6.97
2023-05-03T13:32:10.588Z,7.16
2023-05-03T13:34:57.751Z,7.11
2023-05-03T13:37:44.748Z,7.09
2023-05-03T13:40:32.200Z,7.03
2023-05-03T13:43:19.220Z,6.95
2023-05-03T13:46:06.301Z,6.78
2023-05-03T13:48:53.524Z,6.82
2023-05-03T13:51:40.545Z,6.33
2023-05-03T13:54:29.518Z,6.66
2023-05-03T13:57:17.333Z,6.68
2023-05-03T14:00:04.782Z,6.61
2023-05-03T14:02:54.218Z,6.53
2023-05-03T14:05:41.451Z,6.50
2023-05-03T14:08:28.522Z,6.30
2023-05-03T14:11:15.712Z,6.43
2023-05-03T14:14:03.002Z,6.45
2023-05-03T14:16:50.660Z,6.45
2023-05-03T14:19:37.984Z,6.45
2023-05-03T14:22:25.462Z,6.41
2023-05-03T14:25:12.428Z,6.43
2023-05-03T14:27:59.863Z,6.44
2023-05-03T14:30:46.877Z,6.45
2023-05-03T14:33:34.310Z,6.44
2023-05-03T14:36:21.571Z,6.14
2023-05-03T14:39:08.608Z,6.42
2023-05-03T14:41:56.557Z,6.33
2023-05-03T14:44:43.667Z,6.34
2023-05-03T14:47:31.284Z,6.47
2023-05-03T14:50:18.559Z,6.54
2023-05-03T14:53:05.587Z,6.64
2023-05-03T14:55:52.520Z,6.74
2023-05-03T14:58:39.495Z,6.83
2023-05-03T15:01:26.896Z,6.90
2023-05-03T15:04:14.177Z,7.06
2023-05-03T15:07:01.205Z,7.21
2023-05-03T15:09:48.649Z,7.31
2023-05-03T15:12:35.968Z,7.29
2023-05-03T15:15:23.056Z,7.24
2023-05-03T15:18:10.256Z,7.23
2023-05-03T15:20:57.342Z,7.26
2023-05-03T15:23:44.486Z,7.36
2023-05-03T15:26:32.180Z,7.49
2023-05-03T15:29:19.158Z,7.55
2023-05-03T15:32:06.336Z,7.35
2023-05-03T15:34:53.461Z,7.49
2023-05-03T15:37:40.780Z,7.45
2023-05-03T15:40:30.045Z,7.48
2023-05-03T15:43:17.457Z,7.41
2023-05-03T15:46:04.578Z,7.46
2023-05-03T15:48:51.626Z,7.38
2023-05-03T15:51:38.704Z,7.27
2023-05-03T15:54:25.771Z,7.30
2023-05-03T15:57:13.000Z,7.26
2023-05-03T16:00:00.180Z,7.23
2023-05-03T16:02:47.435Z,7.16
2023-05-03T16:05:34.482Z,7.20
2023-05-03T16:08:21.576Z,7.24
2023-05-03T16:11:08.591Z,7.30
2023-05-03T16:13:55.875Z,7.39
2023-05-03T16:16:42.925Z,7.46
2023-05-03T16:19:29.982Z,7.45
2023-05-03T16:22:17.018Z,7.39
2023-05-03T16:25:03.989Z,7.32
2023-05-03T16:27:50.911Z,7.21
2023-05-03T16:30:38.005Z,7.10
2023-05-03T16:33:25.003Z,6.62
2023-05-03T16:36:12.238Z,6.96
2023-05-03T16:39:00.241Z,6.67
2023-05-03T16:41:47.255Z,6.96
2023-05-03T16:44:34.237Z,7.00
2023-05-03T16:47:21.411Z,7.11
2023-05-03T16:50:08.594Z,7.18
2023-05-03T16:53:03.210Z,7.32
2023-05-03T16:55:50.299Z,7.42
2023-05-03T16:58:37.796Z,7.37
2023-05-03T17:01:25.394Z,7.47
2023-05-03T17:04:12.859Z,7.61
2023-05-03T17:07:00.294Z,7.67
2023-05-03T17:09:47.501Z,7.27
2023-05-03T17:12:35.251Z,7.65
2023-05-03T17:15:22.574Z,7.41
2023-05-03T17:18:09.644Z,7.61
2023-05-03T17:20:37.245Z,7.54
2023-05-03T17:23:04.391Z,7.39
2023-05-03T17:25:31.583Z,7.23
2023-05-03T17:27:58.701Z,7.25
2023-05-03T17:30:25.998Z,7.28
2023-05-03T17:32:53.172Z,7.22
2023-05-03T17:35:20.221Z,7.15
2023-05-03T17:37:47.392Z,7.07
2023-05-03T17:40:14.485Z,7.00
2023-05-03T17:42:41.999Z,6.92
2023-05-03T17:45:09.900Z,6.86
2023-05-03T17:47:37.129Z,6.81
2023-05-03T17:50:04.782Z,6.76
2023-05-03T17:52:32.026Z,6.60
2023-05-03T17:54:59.193Z,6.64
2023-05-03T17:57:26.606Z,6.55
2023-05-03T17:59:53.661Z,6.49
2023-05-03T18:02:21.692Z,6.42
2023-05-03T18:04:48.929Z,6.35
2023-05-03T18:07:16.182Z,6.29
2023-05-03T18:09:43.643Z,6.26
2023-05-03T18:12:10.781Z,6.23
2023-05-03T18:14:38.582Z,5.87
2023-05-03T18:17:07.543Z,6.14
2023-05-03T18:19:34.707Z,6.11
2023-05-03T18:22:02.208Z,6.08
2023-05-03T18:24:29.350Z,6.05
2023-05-03T18:26:56.502Z,5.96
2023-05-03T18:29:23.695Z,6.00
2023-05-03T18:31:52.475Z,5.97
2023-05-03T18:34:19.503Z,5.87
2023-05-03T18:36:46.737Z,5.89
2023-05-03T18:39:13.743Z,5.87
2023-05-03T18:41:40.773Z,5.80
2023-05-03T18:44:08.342Z,5.77
2023-05-03T18:46:38.795Z,5.72
2023-05-03T18:49:06.248Z,5.47
2023-05-03T18:51:33.255Z,5.63
2023-05-03T18:54:00.191Z,5.56
2023-05-03T18:56:30.268Z,5.46
2023-05-03T18:58:57.575Z,5.44
2023-05-03T19:01:27.581Z,5.47
2023-05-03T19:03:55.173Z,5.40
2023-05-03T19:06:22.419Z,5.36
2023-05-03T19:08:49.880Z,5.30
2023-05-03T19:11:17.316Z,5.28
2023-05-03T19:13:46.266Z,5.24
2023-05-03T19:16:15.698Z,5.12
2023-05-03T19:18:44.412Z,5.16
2023-05-03T19:21:17.960Z,5.11
2023-05-03T19:23:45.142Z,5.05
2023-05-03T19:26:12.487Z,4.94
2023-05-03T19:29:00.015Z,4.94
2023-05-03T19:31:47.179Z,4.86
2023-05-03T19:34:34.204Z,4.82
2023-05-03T19:37:22.343Z,4.73
2023-05-03T19:40:09.392Z,4.53
2023-05-03T19:42:56.972Z,4.60
2023-05-03T19:45:44.180Z,4.54
2023-05-03T19:48:31.830Z,4.50
2023-05-03T19:51:19.311Z,4.01
2023-05-03T19:54:06.416Z,4.35
2023-05-03T19:56:53.407Z,4.34
2023-05-03T19:59:40.759Z,4.30
2023-05-03T20:02:27.910Z,4.21
2023-05-03T20:05:15.232Z,4.18
2023-05-03T20:08:02.202Z,4.19
2023-05-03T20:10:49.438Z,4.18
2023-05-03T20:13:36.430Z,4.15
2023-05-03T20:16:26.215Z,4.08
2023-05-03T20:19:13.503Z,3.99
2023-05-03T20:22:00.665Z,4.02
2023-05-03T20:24:48.170Z,3.98
2023-05-03T20:27:36.026Z,3.94
2023-05-03T20:30:23.220Z,3.90
2023-05-03T20:33:10.456Z,3.58
2023-05-03T20:35:57.710Z,3.80
2023-05-03T20:38:44.739Z,3.72
2023-05-03T20:41:31.831Z,3.72
2023-05-03T20:44:18.821Z,3.67
2023-05-03T20:47:05.925Z,3.65
2023-05-03T20:49:52.852Z,3.61
2023-05-03T20:52:40.001Z,3.55
2023-05-03T20:55:27.446Z,3.43
2023-05-03T20:58:14.548Z,3.46
2023-05-03T21:01:01.541Z,3.41
2023-05-03T21:03:48.895Z,3.36
2023-05-03T21:06:35.897Z,3.23
2023-05-03T21:09:23.129Z,3.25
2023-05-03T21:12:10.212Z,3.12
2023-05-03T21:14:57.187Z,3.12
2023-05-03T21:17:44.278Z,3.05
2023-05-03T21:20:31.883Z,3.00
2023-05-03T21:23:18.856Z,2.94
2023-05-03T21:26:05.961Z,2.64
2023-05-03T21:28:53.015Z,2.73
2023-05-03T21:31:40.202Z,2.77
2023-05-03T21:34:27.215Z,2.63
2023-05-03T21:37:14.533Z,2.67
2023-05-03T21:40:02.874Z,2.62
2023-05-03T21:42:50.532Z,2.57
2023-05-03T21:45:37.623Z,2.52
2023-05-03T21:48:25.167Z,2.47
2023-05-03T21:51:12.225Z,2.39
2023-05-03T21:53:59.264Z,2.38
2023-05-03T21:56:46.618Z,2.33
2023-05-03T21:59:33.850Z,2.29
2023-05-03T22:02:21.051Z,2.19
2023-05-03T22:05:08.858Z,2.19
2023-05-03T22:07:55.961Z,2.15
2023-05-03T22:10:43.035Z,2.11
2023-05-03T22:13:30.042Z,2.07
2023-05-03T22:16:23.764Z,2.03
2023-05-03T22:19:10.818Z,1.92
2023-05-03T22:21:58.117Z,1.93
2023-05-03T22:24:45.250Z,1.90
2023-05-03T22:27:32.282Z,1.84
2023-05-03T22:30:19.282Z,1.79
2023-05-03T22:33:06.385Z,1.70
2023-05-03T22:35:53.354Z,1.64
2023-05-03T22:38:42.727Z,1.66
2023-05-03T22:41:30.305Z,1.62
2023-05-03T22:44:17.295Z,1.58
2023-05-03T22:47:04.326Z,1.54
2023-05-03T22:49:51.464Z,1.50
2023-05-03T22:52:38.423Z,1.45
2023-05-03T22:55:26.040Z,1.42
2023-05-03T22:58:13.061Z,1.37
2023-05-03T23:01:00.348Z,1.29
2023-05-03T23:03:47.447Z,1.27
2023-05-03T23:06:34.959Z,1.29
2023-05-03T23:09:21.958Z,1.27
2023-05-03T23:12:09.241Z,1.19
2023-05-03T23:14:56.243Z,1.22
2023-05-03T23:17:43.547Z,1.20
2023-05-03T23:20:31.430Z,1.18
2023-05-03T23:23:18.562Z,1.14
2023-05-03T23:26:05.654Z,1.11
2023-05-03T23:28:52.992Z,0.98
2023-05-03T23:31:40.368Z,1.06
2023-05-03T23:34:28.026Z,1.05
2023-05-03T23:37:15.379Z,0.56
2023-05-03T23:40:03.824Z,1.00
2023-05-03T23:42:51.361Z,0.98
2023-05-03T23:45:38.387Z,0.95
2023-05-03T23:48:25.725Z,0.93
2023-05-03T23:51:12.641Z,0.90
2023-05-03T23:53:59.934Z,0.90
2023-05-03T23:56:46.882Z,0.58
2023-05-03T23:59:33.998Z,0.87
